createdAt,value
2022-08-05T00:04:35.914Z,1003.548
2022-08-05T00:09:51.216Z,1003.448
2022-08-05T00:15:14.118Z,1003.434
2022-08-05T00:20:15.648Z,1003.393
2022-08-05T00:25:28.041Z,1003.337
2022-08-05T00:30:41.054Z,1003.411
2022-08-05T00:36:15.340Z,1003.41
2022-08-05T00:41:04.688Z,1003.432
2022-08-05T00:46:16.927Z,1003.448
2022-08-05T00:51:51.279Z,1003.822
2022-08-05T00:56:40.923Z,1003.648
2022-08-05T01:01:56.184Z,1003.655
2022-08-05T01:07:08.400Z,1003.619
2022-08-05T01:12:23.437Z,1003.816
2022-08-05T01:17:40.011Z,1003.762
2022-08-05T01:22:48.125Z,1003.707
2022-08-05T01:28:00.550Z,1003.9
2022-08-05T01:33:12.762Z,1003.78
2022-08-05T01:38:26.986Z,1003.772
2022-08-05T01:43:37.412Z,1003.861
2022-08-05T01:48:50.032Z,1003.711
2022-08-05T01:54:02.245Z,1003.779
2022-08-05T01:59:14.609Z,1003.579
2022-08-05T02:04:26.893Z,1003.577
2022-08-05T02:09:39.376Z,1003.622
2022-08-05T02:14:51.665Z,1003.576
2022-08-05T02:20:04.106Z,1003.604
2022-08-05T02:25:16.454Z,1003.574
2022-08-05T02:30:28.756Z,1003.67
2022-08-05T02:35:44.275Z,1003.685
2022-08-05T02:46:05.465Z,1003.615
2022-08-05T02:51:18.132Z,1003.622
2022-08-05T02:56:30.370Z,1003.649
2022-08-05T03:01:42.706Z,1003.569
2022-08-05T03:06:59.154Z,1003.517
2022-08-05T03:12:10.094Z,1003.426
2022-08-05T03:17:22.905Z,1003.303
2022-08-05T03:22:34.930Z,1003.337
2022-08-05T03:27:59.153Z,1003.236
2022-08-05T03:32:59.257Z,1003.21
2022-08-05T03:38:11.467Z,1003.224
2022-08-05T03:43:59.452Z,1003.26
2022-08-05T03:48:36.623Z,1003.419
2022-08-05T03:55:07.043Z,1003.513
2022-08-05T03:59:00.696Z,1003.586
2022-08-05T04:04:12.940Z,1003.528
2022-08-05T04:09:26.201Z,1003.534
2022-08-05T04:14:37.649Z,1003.502
2022-08-05T04:19:54.388Z,1003.503
2022-08-05T04:25:02.348Z,1003.607
2022-08-05T04:30:14.413Z,1003.723
2022-08-05T04:35:26.681Z,1003.74
2022-08-05T04:40:39.171Z,1003.64
2022-08-05T04:45:54.790Z,1003.627
2022-08-05T04:51:10.975Z,1003.569
2022-08-05T04:56:32.717Z,1003.525
2022-08-05T05:01:33.390Z,1003.604
2022-08-05T05:06:45.010Z,1003.707
2022-08-05T05:17:07.390Z,1003.889
2022-08-05T05:22:23.269Z,1004.087
2022-08-05T05:27:41.947Z,1004.445
2022-08-05T05:32:43.036Z,1004.576
2022-08-05T05:37:59.214Z,1004.383
2022-08-05T05:43:08.492Z,1004.417
2022-08-05T05:48:19.891Z,1004.497
2022-08-05T05:58:44.541Z,1005.161
2022-08-05T06:04:00.786Z,1005
2022-08-05T06:09:08.880Z,1005.145
2022-08-05T06:14:21.235Z,1005.199
2022-08-05T06:19:34.353Z,1005.378
2022-08-05T06:24:46.706Z,1005.415
2022-08-05T06:35:15.335Z,1005.181
2022-08-05T06:40:27.797Z,1005.237
2022-08-05T06:45:44.211Z,1005.209
2022-08-05T06:50:47.748Z,1005.103
2022-08-05T06:56:00.158Z,1005.116
2022-08-05T07:01:15.824Z,1005.104
2022-08-05T07:06:28.569Z,1005.252
2022-08-05T07:11:40.737Z,1005.387
2022-08-05T07:17:57.426Z,1005.739
2022-08-05T07:22:05.056Z,1005.84
2022-08-05T07:27:17.306Z,1005.812
2022-08-05T07:32:29.625Z,1005.607
2022-08-05T07:37:41.871Z,1005.477
2022-08-05T07:42:54.281Z,1005.462
2022-08-05T07:48:06.520Z,1005.594
2022-08-05T07:53:21.497Z,1005.531
2022-08-05T08:05:01.676Z,1005.367
2022-08-05T08:10:16.803Z,1005.295
2022-08-05T08:15:37.580Z,1005.224
2022-08-05T08:20:44.929Z,1005.036
2022-08-05T08:25:58.980Z,1005.209
2022-08-05T08:31:06.807Z,1005.355
2022-08-05T08:36:37.335Z,1005.663
2022-08-05T08:41:51.556Z,1005.594
2022-08-05T08:46:43.993Z,1005.833
2022-08-05T08:52:02.668Z,1006.019
2022-08-05T08:57:11.143Z,1006.039
2022-08-05T09:02:21.022Z,1006.198
2022-08-05T09:07:39.606Z,1006.176
2022-08-05T09:12:45.458Z,1006.174
2022-08-05T09:17:57.888Z,1006.08
2022-08-05T09:23:10.316Z,1006.135
2022-08-05T09:28:22.661Z,1006.183
2022-08-05T09:33:35.017Z,1006.14
2022-08-05T09:38:47.186Z,1006.297
2022-08-05T09:43:59.657Z,1006.219
2022-08-05T09:49:19.312Z,1005.879
2022-08-05T09:54:29.194Z,1005.887
2022-08-05T09:59:37.082Z,1005.521
2022-08-05T10:04:48.820Z,1005.306
2022-08-05T10:10:02.742Z,1005.385
2022-08-05T10:15:13.491Z,1005.69
2022-08-05T10:20:25.782Z,1005.656
2022-08-05T10:25:38.242Z,1005.91
2022-08-05T10:31:21.226Z,1006.142
2022-08-05T10:36:02.832Z,1006.3
2022-08-05T10:41:15.177Z,1006.2
2022-08-05T10:46:27.406Z,1005.988
2022-08-05T10:51:40.219Z,1005.981
2022-08-05T10:56:52.742Z,1005.997
2022-08-05T11:02:05.483Z,1005.958
2022-08-05T11:07:17.018Z,1005.893
2022-08-05T11:12:29.354Z,1005.92
2022-08-05T11:17:56.917Z,1006.069
2022-08-05T11:22:58.099Z,1006.17
2022-08-05T11:28:07.236Z,1006.172
2022-08-05T11:33:21.453Z,1006.234
2022-08-05T11:38:36.691Z,1006.38
2022-08-05T11:44:06.893Z,1006.282
2022-08-05T11:48:58.920Z,1006.291
2022-08-05T11:54:11.269Z,1006.421
2022-08-05T11:59:23.764Z,1006.284
2022-08-05T12:04:36.244Z,1006.225
2022-08-05T12:09:52.602Z,1006.325
2022-08-05T12:15:01.065Z,1006.326
2022-08-05T12:20:17.622Z,1006.262
2022-08-05T12:25:28.493Z,1006.359
2022-08-05T12:30:38.174Z,1006.337
2022-08-05T12:35:50.602Z,1006.331
2022-08-05T12:41:03.040Z,1006.373
2022-08-05T12:46:15.317Z,1006.365
2022-08-05T12:52:11.350Z,1006.5
2022-08-05T12:56:39.800Z,1006.561
2022-08-05T13:02:06.923Z,1006.47
2022-08-05T13:07:15.977Z,1006.378
2022-08-05T13:12:24.026Z,1006.315
2022-08-05T13:17:41.208Z,1006.371
2022-08-05T13:22:48.696Z,1006.371
2022-08-05T13:28:01.141Z,1006.316
2022-08-05T13:33:14.203Z,1006.302
2022-08-05T13:38:28.555Z,1006.346
2022-08-05T13:43:43.809Z,1006.367
2022-08-05T13:48:56.989Z,1006.39
2022-08-05T13:54:03.000Z,1006.356
2022-08-05T13:59:19.878Z,1006.237
2022-08-05T14:04:27.297Z,1006.219
2022-08-05T14:09:42.890Z,1006.245
2022-08-05T14:14:52.248Z,1006.383
2022-08-05T14:20:07.518Z,1006.431
2022-08-05T14:25:19.375Z,1006.516
2022-08-05T14:30:28.897Z,1006.466
2022-08-05T14:35:50.674Z,1006.64
2022-08-05T14:40:56.067Z,1006.624
2022-08-05T14:46:08.340Z,1006.729
2022-08-05T14:51:20.359Z,1006.638
2022-08-05T14:56:32.654Z,1006.575
2022-08-05T15:01:47.522Z,1006.571
2022-08-05T15:06:57.091Z,1006.608
2022-08-05T15:12:11.648Z,1006.602
2022-08-05T15:17:45.253Z,1006.543
2022-08-05T15:22:33.785Z,1006.759
2022-08-05T15:27:52.155Z,1006.751
2022-08-05T15:32:58.053Z,1006.804
2022-08-05T15:38:33.525Z,1006.714
2022-08-05T15:43:22.718Z,1006.831
2022-08-05T15:48:34.963Z,1006.961
2022-08-05T15:53:50.219Z,1006.956
2022-08-05T15:58:59.567Z,1007.036
2022-08-05T16:04:11.801Z,1007.195
2022-08-05T16:09:24.289Z,1007.199
2022-08-05T16:14:36.540Z,1007.218
2022-08-05T16:20:02.852Z,1007.346
2022-08-05T16:25:05.231Z,1007.366
2022-08-05T16:30:23.055Z,1007.482
2022-08-05T16:35:28.213Z,1007.617
2022-08-05T16:40:38.453Z,1007.877
2022-08-05T16:51:03.914Z,1008.094
2022-08-05T16:56:15.389Z,1008.071
2022-08-05T17:01:27.837Z,1008.038
2022-08-05T17:06:40.957Z,1008.185
2022-08-05T17:11:59.560Z,1008.446
2022-08-05T17:17:04.699Z,1008.573
2022-08-05T17:22:18.003Z,1008.755
2022-08-05T17:27:33.440Z,1009.137
2022-08-05T17:32:41.988Z,1008.942
2022-08-05T17:37:53.505Z,1008.848
2022-08-05T17:43:07.664Z,1009.039
2022-08-05T17:48:18.493Z,1009.038
2022-08-05T17:53:32.983Z,1009.166
2022-08-05T17:58:43.475Z,1009.278
2022-08-05T18:03:58.800Z,1009.386
2022-08-05T18:09:09.487Z,1009.521
2022-08-05T18:14:20.373Z,1009.489
2022-08-05T18:19:32.633Z,1009.537
2022-08-05T18:24:44.849Z,1009.603
2022-08-05T18:29:57.201Z,1009.817
2022-08-05T18:35:11.479Z,1009.848
2022-08-05T18:40:31.337Z,1009.894
2022-08-05T18:45:41.134Z,1009.835
2022-08-05T18:50:46.535Z,1010.001
2022-08-05T18:55:58.661Z,1009.943
2022-08-05T19:01:18.065Z,1010.184
2022-08-05T19:06:34.264Z,1010.41
2022-08-05T19:11:37.040Z,1010.45
2022-08-05T19:16:48.312Z,1010.527
2022-08-05T19:22:00.552Z,1010.685
2022-08-05T19:27:12.891Z,1010.594
2022-08-05T19:32:25.271Z,1010.693
2022-08-05T19:37:47.586Z,1010.718
2022-08-05T19:43:01.083Z,1010.804
2022-08-05T19:48:02.473Z,1010.86
2022-08-05T19:53:14.857Z,1011.002
2022-08-05T19:58:28.985Z,1010.939
2022-08-05T20:03:40.582Z,1010.93
2022-08-05T20:08:52.278Z,1011.1
2022-08-05T20:14:11.842Z,1011.157
2022-08-05T20:19:16.934Z,1011.145
2022-08-05T20:24:29.347Z,1011.186
2022-08-05T20:29:41.575Z,1011.185
2022-08-05T20:34:53.823Z,1011.354
2022-08-05T20:40:06.153Z,1011.53
2022-08-05T20:45:18.230Z,1011.59
2022-08-05T20:50:30.548Z,1011.752
2022-08-05T21:00:56.810Z,1011.879
2022-08-05T21:06:23.049Z,1012.026
2022-08-05T21:12:08.041Z,1012.136
2022-08-05T21:16:35.249Z,1012.081
2022-08-05T21:21:50.677Z,1012.218
2022-08-05T21:26:59.873Z,1012.184
2022-08-05T21:32:17.115Z,1012.207
2022-08-05T21:37:24.511Z,1012.234
2022-08-05T21:47:55.323Z,1012.2
2022-08-05T21:53:04.259Z,1012.169
2022-08-05T21:58:14.238Z,1012.28
2022-08-05T22:03:48.405Z,1012.32
2022-08-05T22:08:42.421Z,1012.413
2022-08-05T22:14:06.884Z,1012.223
2022-08-05T22:19:04.107Z,1012.386
2022-08-05T22:24:39.926Z,1012.522
2022-08-05T22:29:30.596Z,1012.596
2022-08-05T22:34:41.145Z,1012.547
2022-08-05T22:39:53.352Z,1012.722
2022-08-05T22:45:05.518Z,1012.65
2022-08-05T22:50:22.932Z,1012.807
2022-08-05T22:55:37.042Z,1012.946
2022-08-05T23:00:42.428Z,1012.845
2022-08-05T23:05:54.688Z,1012.898
2022-08-05T23:11:06.832Z,1012.972
2022-08-05T23:16:25.933Z,1012.895
2022-08-05T23:21:42.682Z,1012.929
2022-08-05T23:26:46.376Z,1012.894
2022-08-05T23:31:58.614Z,1012.89
2022-08-05T23:37:13.634Z,1012.994
2022-08-05T23:42:29.111Z,1013.199
2022-08-05T23:47:38.139Z,1013.302
2022-08-05T23:52:53.332Z,1013.319
2022-08-05T23:58:05.909Z,1013.399
